sensor_id;sensor_type;location;lat;lon;timestamp;P1;durP1;ratioP1;P2;durP2;ratioP2
42972;SDS011;28610;51.214;6.962;2023-02-19T00:02:01;29.43;;;16.90;;
42972;SDS011;28610;51.214;6.962;2023-02-19T00:04:47;32.37;;;18.07;;
42972;SDS011;28610;51.214;6.962;2023-02-19T00:07:34;30.17;;;17.73;;
42972;SDS011;28610;51.214;6.962;2023-02-19T00:10:20;30.83;;;18.00;;
42972;SDS011;28610;51.214;6.962;2023-02-19T00:13:05;32.90;;;17.57;;
42972;SDS011;28610;51.214;6.962;2023-02-19T00:15:51;29.70;;;17.13;;
42972;SDS011;28610;51.214;6.962;2023-02-19T00:18:37;28.67;;;16.97;;
42972;SDS011;28610;51.214;6.962;2023-02-19T00:21:22;32.27;;;18.87;;
42972;SDS011;28610;51.214;6.962;2023-02-19T00:24:10;28.97;;;16.80;;
42972;SDS011;28610;51.214;6.962;2023-02-19T00:26:57;30.50;;;17.60;;
42972;SDS011;28610;51.214;6.962;2023-02-19T00:29:42;31.90;;;17.73;;
42972;SDS011;28610;51.214;6.962;2023-02-19T00:32:28;32.17;;;17.70;;
42972;SDS011;28610;51.214;6.962;2023-02-19T00:35:13;31.67;;;18.03;;
42972;SDS011;28610;51.214;6.962;2023-02-19T00:37:59;35.80;;;19.27;;
42972;SDS011;28610;51.214;6.962;2023-02-19T00:40:46;32.70;;;18.43;;
42972;SDS011;28610;51.214;6.962;2023-02-19T00:43:32;31.83;;;16.93;;
42972;SDS011;28610;51.214;6.962;2023-02-19T00:46:19;31.87;;;16.20;;
42972;SDS011;28610;51.214;6.962;2023-02-19T00:49:05;30.80;;;16.60;;
42972;SDS011;28610;51.214;6.962;2023-02-19T00:51:51;31.30;;;17.10;;
42972;SDS011;28610;51.214;6.962;2023-02-19T00:54:37;27.23;;;15.57;;
42972;SDS011;28610;51.214;6.962;2023-02-19T00:57:24;28.17;;;15.83;;
42972;SDS011;28610;51.214;6.962;2023-02-19T01:00:10;26.83;;;16.20;;
42972;SDS011;28610;51.214;6.962;2023-02-19T01:02:56;30.23;;;16.30;;
42972;SDS011;28610;51.214;6.962;2023-02-19T01:05:42;28.53;;;16.20;;
42972;SDS011;28610;51.214;6.962;2023-02-19T01:08:28;28.00;;;15.93;;
42972;SDS011;28610;51.214;6.962;2023-02-19T01:11:14;29.07;;;15.23;;
42972;SDS011;28610;51.214;6.962;2023-02-19T01:14:02;29.93;;;16.13;;
42972;SDS011;28610;51.214;6.962;2023-02-19T01:16:48;32.67;;;16.77;;
42972;SDS011;28610;51.214;6.962;2023-02-19T01:19:33;30.77;;;16.37;;
42972;SDS011;28610;51.214;6.962;2023-02-19T01:22:19;31.73;;;16.47;;
42972;SDS011;28610;51.214;6.962;2023-02-19T01:25:05;30.17;;;17.03;;
42972;SDS011;28610;51.214;6.962;2023-02-19T01:27:51;31.47;;;16.73;;
42972;SDS011;28610;51.214;6.962;2023-02-19T01:30:37;29.87;;;15.70;;
42972;SDS011;28610;51.214;6.962;2023-02-19T01:33:23;27.97;;;16.40;;
42972;SDS011;28610;51.214;6.962;2023-02-19T01:36:09;30.33;;;16.23;;
42972;SDS011;28610;51.214;6.962;2023-02-19T01:38:55;31.10;;;16.07;;
42972;SDS011;28610;51.214;6.962;2023-02-19T01:41:40;33.20;;;16.67;;
42972;SDS011;28610;51.214;6.962;2023-02-19T01:47:33;29.00;;;16.03;;
42972;SDS011;28610;51.214;6.962;2023-02-19T01:50:19;29.20;;;16.00;;
42972;SDS011;28610;51.214;6.962;2023-02-19T01:53:05;34.57;;;16.87;;
42972;SDS011;28610;51.214;6.962;2023-02-19T01:55:52;33.97;;;16.83;;
42972;SDS011;28610;51.214;6.962;2023-02-19T01:58:40;34.57;;;17.07;;
42972;SDS011;28610;51.214;6.962;2023-02-19T02:01:26;33.27;;;15.97;;
42972;SDS011;28610;51.214;6.962;2023-02-19T02:04:13;32.00;;;15.73;;
42972;SDS011;28610;51.214;6.962;2023-02-19T02:07:00;31.23;;;16.03;;
42972;SDS011;28610;51.214;6.962;2023-02-19T02:10:06;36.17;;;17.03;;
42972;SDS011;28610;51.214;6.962;2023-02-19T02:13:03;37.10;;;17.90;;
42972;SDS011;28610;51.214;6.962;2023-02-19T02:15:50;33.90;;;16.43;;
42972;SDS011;28610;51.214;6.962;2023-02-19T02:18:41;35.57;;;16.93;;
42972;SDS011;28610;51.214;6.962;2023-02-19T02:21:53;36.77;;;17.93;;
42972;SDS011;28610;51.214;6.962;2023-02-19T02:24:47;40.53;;;18.87;;
42972;SDS011;28610;51.214;6.962;2023-02-19T02:27:37;38.07;;;17.67;;
42972;SDS011;28610;51.214;6.962;2023-02-19T02:33:27;41.33;;;18.77;;
42972;SDS011;28610;51.214;6.962;2023-02-19T02:36:16;42.30;;;19.67;;
42972;SDS011;28610;51.214;6.962;2023-02-19T02:39:03;43.03;;;18.83;;
42972;SDS011;28610;51.214;6.962;2023-02-19T02:41:50;43.53;;;19.80;;
42972;SDS011;28610;51.214;6.962;2023-02-19T02:44:53;45.90;;;20.33;;
42972;SDS011;28610;51.214;6.962;2023-02-19T02:47:57;40.23;;;18.80;;
42972;SDS011;28610;51.214;6.962;2023-02-19T02:50:44;44.77;;;20.03;;
42972;SDS011;28610;51.214;6.962;2023-02-19T02:53:31;43.37;;;20.37;;
42972;SDS011;28610;51.214;6.962;2023-02-19T02:56:37;44.43;;;20.03;;
42972;SDS011;28610;51.214;6.962;2023-02-19T02:59:24;44.23;;;20.47;;
42972;SDS011;28610;51.214;6.962;2023-02-19T03:02:12;45.23;;;20.83;;
42972;SDS011;28610;51.214;6.962;2023-02-19T03:05:01;46.47;;;20.93;;
42972;SDS011;28610;51.214;6.962;2023-02-19T03:08:08;50.70;;;21.57;;
42972;SDS011;28610;51.214;6.962;2023-02-19T03:10:54;52.73;;;20.97;;
42972;SDS011;28610;51.214;6.962;2023-02-19T03:13:41;49.67;;;21.20;;
42972;SDS011;28610;51.214;6.962;2023-02-19T03:16:45;46.67;;;22.23;;
42972;SDS011;28610;51.214;6.962;2023-02-19T03:19:51;51.80;;;21.43;;
42972;SDS011;28610;51.214;6.962;2023-02-19T03:22:39;42.80;;;21.73;;
42972;SDS011;28610;51.214;6.962;2023-02-19T03:25:27;47.20;;;22.03;;
42972;SDS011;28610;51.214;6.962;2023-02-19T03:28:33;50.33;;;20.67;;
42972;SDS011;28610;51.214;6.962;2023-02-19T03:31:37;49.17;;;21.43;;
42972;SDS011;28610;51.214;6.962;2023-02-19T03:34:25;48.20;;;21.77;;
42972;SDS011;28610;51.214;6.962;2023-02-19T03:37:11;47.63;;;21.30;;
42972;SDS011;28610;51.214;6.962;2023-02-19T03:39:58;43.57;;;20.13;;
42972;SDS011;28610;51.214;6.962;2023-02-19T03:42:47;42.77;;;21.03;;
42972;SDS011;28610;51.214;6.962;2023-02-19T03:45:37;46.63;;;21.10;;
42972;SDS011;28610;51.214;6.962;2023-02-19T03:48:28;43.93;;;20.83;;
42972;SDS011;28610;51.214;6.962;2023-02-19T03:51:18;46.33;;;21.20;;
42972;SDS011;28610;51.214;6.962;2023-02-19T03:54:09;50.17;;;20.97;;
42972;SDS011;28610;51.214;6.962;2023-02-19T03:56:57;48.93;;;21.60;;
42972;SDS011;28610;51.214;6.962;2023-02-19T03:59:47;49.53;;;22.00;;
42972;SDS011;28610;51.214;6.962;2023-02-19T04:02:36;52.80;;;22.23;;
42972;SDS011;28610;51.214;6.962;2023-02-19T04:05:25;45.60;;;22.00;;
42972;SDS011;28610;51.214;6.962;2023-02-19T04:08:12;50.23;;;21.20;;
42972;SDS011;28610;51.214;6.962;2023-02-19T04:10:59;54.60;;;23.30;;
42972;SDS011;28610;51.214;6.962;2023-02-19T04:13:45;53.67;;;22.40;;
42972;SDS011;28610;51.214;6.962;2023-02-19T04:16:33;53.93;;;22.03;;
42972;SDS011;28610;51.214;6.962;2023-02-19T04:19:22;43.10;;;21.27;;
42972;SDS011;28610;51.214;6.962;2023-02-19T04:22:08;50.87;;;20.40;;
42972;SDS011;28610;51.214;6.962;2023-02-19T04:24:54;51.07;;;22.10;;
42972;SDS011;28610;51.214;6.962;2023-02-19T04:27:40;54.70;;;23.13;;
42972;SDS011;28610;51.214;6.962;2023-02-19T04:30:29;61.77;;;23.53;;
42972;SDS011;28610;51.214;6.962;2023-02-19T04:33:16;55.50;;;22.47;;
42972;SDS011;28610;51.214;6.962;2023-02-19T04:36:02;58.97;;;23.73;;
42972;SDS011;28610;51.214;6.962;2023-02-19T04:38:48;56.23;;;24.03;;
42972;SDS011;28610;51.214;6.962;2023-02-19T04:41:33;52.30;;;22.10;;
42972;SDS011;28610;51.214;6.962;2023-02-19T04:44:19;55.80;;;24.27;;
42972;SDS011;28610;51.214;6.962;2023-02-19T04:47:05;50.57;;;22.80;;
42972;SDS011;28610;51.214;6.962;2023-02-19T04:49:52;58.27;;;23.63;;
42972;SDS011;28610;51.214;6.962;2023-02-19T04:52:38;59.00;;;23.57;;
42972;SDS011;28610;51.214;6.962;2023-02-19T04:55:23;58.17;;;24.70;;
42972;SDS011;28610;51.214;6.962;2023-02-19T04:58:09;54.03;;;23.40;;
42972;SDS011;28610;51.214;6.962;2023-02-19T05:00:54;55.37;;;24.57;;
42972;SDS011;28610;51.214;6.962;2023-02-19T05:03:40;63.60;;;24.10;;
42972;SDS011;28610;51.214;6.962;2023-02-19T05:06:27;55.17;;;23.67;;
42972;SDS011;28610;51.214;6.962;2023-02-19T05:09:12;50.00;;;22.90;;
42972;SDS011;28610;51.214;6.962;2023-02-19T05:11:58;62.73;;;23.33;;
42972;SDS011;28610;51.214;6.962;2023-02-19T05:14:43;50.53;;;22.33;;
42972;SDS011;28610;51.214;6.962;2023-02-19T05:17:31;50.50;;;21.50;;
42972;SDS011;28610;51.214;6.962;2023-02-19T05:20:16;45.83;;;21.07;;
42972;SDS011;28610;51.214;6.962;2023-02-19T05:23:03;51.93;;;21.10;;
42972;SDS011;28610;51.214;6.962;2023-02-19T05:25:49;45.83;;;20.43;;
42972;SDS011;28610;51.214;6.962;2023-02-19T05:28:34;46.17;;;19.30;;
42972;SDS011;28610;51.214;6.962;2023-02-19T05:31:20;43.00;;;18.70;;
42972;SDS011;28610;51.214;6.962;2023-02-19T05:34:06;43.40;;;18.33;;
42972;SDS011;28610;51.214;6.962;2023-02-19T05:36:51;46.30;;;18.30;;
42972;SDS011;28610;51.214;6.962;2023-02-19T05:39:38;46.47;;;18.50;;
42972;SDS011;28610;51.214;6.962;2023-02-19T05:42:24;39.40;;;17.20;;
42972;SDS011;28610;51.214;6.962;2023-02-19T05:45:10;48.93;;;17.90;;
42972;SDS011;28610;51.214;6.962;2023-02-19T05:47:56;40.00;;;17.80;;
42972;SDS011;28610;51.214;6.962;2023-02-19T05:50:42;43.50;;;18.13;;
42972;SDS011;28610;51.214;6.962;2023-02-19T05:53:27;42.70;;;17.83;;
42972;SDS011;28610;51.214;6.962;2023-02-19T05:56:25;40.70;;;17.43;;
42972;SDS011;28610;51.214;6.962;2023-02-19T05:59:13;43.50;;;18.10;;
42972;SDS011;28610;51.214;6.962;2023-02-19T06:01:59;47.03;;;18.50;;
42972;SDS011;28610;51.214;6.962;2023-02-19T06:04:45;42.03;;;17.63;;
42972;SDS011;28610;51.214;6.962;2023-02-19T06:07:31;48.57;;;18.27;;
42972;SDS011;28610;51.214;6.962;2023-02-19T06:10:16;39.83;;;18.00;;
42972;SDS011;28610;51.214;6.962;2023-02-19T06:13:03;38.77;;;17.60;;
42972;SDS011;28610;51.214;6.962;2023-02-19T06:15:49;44.83;;;17.97;;
42972;SDS011;28610;51.214;6.962;2023-02-19T06:18:34;49.80;;;17.73;;
42972;SDS011;28610;51.214;6.962;2023-02-19T06:21:21;38.13;;;15.53;;
42972;SDS011;28610;51.214;6.962;2023-02-19T06:24:07;38.43;;;17.93;;
42972;SDS011;28610;51.214;6.962;2023-02-19T06:26:53;45.53;;;16.73;;
42972;SDS011;28610;51.214;6.962;2023-02-19T06:29:40;34.53;;;15.80;;
42972;SDS011;28610;51.214;6.962;2023-02-19T06:32:25;42.77;;;15.70;;
42972;SDS011;28610;51.214;6.962;2023-02-19T06:35:11;38.23;;;16.23;;
42972;SDS011;28610;51.214;6.962;2023-02-19T06:37:56;43.90;;;15.90;;
42972;SDS011;28610;51.214;6.962;2023-02-19T06:40:42;42.07;;;16.43;;
42972;SDS011;28610;51.214;6.962;2023-02-19T06:43:29;38.17;;;15.13;;
42972;SDS011;28610;51.214;6.962;2023-02-19T06:46:16;42.50;;;16.43;;
42972;SDS011;28610;51.214;6.962;2023-02-19T06:49:02;44.77;;;16.90;;
42972;SDS011;28610;51.214;6.962;2023-02-19T06:51:48;44.87;;;17.83;;
42972;SDS011;28610;51.214;6.962;2023-02-19T06:54:33;43.50;;;16.27;;
42972;SDS011;28610;51.214;6.962;2023-02-19T06:57:19;41.73;;;17.10;;
42972;SDS011;28610;51.214;6.962;2023-02-19T07:00:05;40.03;;;16.63;;
42972;SDS011;28610;51.214;6.962;2023-02-19T07:02:53;38.03;;;15.27;;
42972;SDS011;28610;51.214;6.962;2023-02-19T07:05:40;33.17;;;14.53;;
42972;SDS011;28610;51.214;6.962;2023-02-19T07:08:26;44.90;;;16.37;;
42972;SDS011;28610;51.214;6.962;2023-02-19T07:11:12;39.93;;;15.57;;
42972;SDS011;28610;51.214;6.962;2023-02-19T07:13:58;38.93;;;16.77;;
42972;SDS011;28610;51.214;6.962;2023-02-19T07:16:44;45.07;;;16.30;;
42972;SDS011;28610;51.214;6.962;2023-02-19T07:19:31;41.77;;;16.47;;
42972;SDS011;28610;51.214;6.962;2023-02-19T07:22:17;40.67;;;16.20;;
42972;SDS011;28610;51.214;6.962;2023-02-19T07:25:02;44.23;;;16.03;;
42972;SDS011;28610;51.214;6.962;2023-02-19T07:27:48;46.77;;;16.27;;
42972;SDS011;28610;51.214;6.962;2023-02-19T07:30:34;42.60;;;15.60;;
42972;SDS011;28610;51.214;6.962;2023-02-19T07:33:19;37.77;;;15.60;;
42972;SDS011;28610;51.214;6.962;2023-02-19T07:36:07;35.90;;;15.77;;
42972;SDS011;28610;51.214;6.962;2023-02-19T07:38:53;31.50;;;15.03;;
42972;SDS011;28610;51.214;6.962;2023-02-19T07:41:39;36.03;;;15.47;;
42972;SDS011;28610;51.214;6.962;2023-02-19T07:44:24;33.47;;;14.23;;
42972;SDS011;28610;51.214;6.962;2023-02-19T07:47:10;44.47;;;19.27;;
42972;SDS011;28610;51.214;6.962;2023-02-19T07:49:56;38.33;;;14.60;;
42972;SDS011;28610;51.214;6.962;2023-02-19T07:52:43;38.47;;;15.30;;
42972;SDS011;28610;51.214;6.962;2023-02-19T07:55:30;39.83;;;14.77;;
42972;SDS011;28610;51.214;6.962;2023-02-19T07:58:15;33.63;;;13.47;;
42972;SDS011;28610;51.214;6.962;2023-02-19T08:01:08;37.20;;;14.37;;
42972;SDS011;28610;51.214;6.962;2023-02-19T08:03:53;35.43;;;13.23;;
42972;SDS011;28610;51.214;6.962;2023-02-19T08:06:38;29.23;;;12.17;;
42972;SDS011;28610;51.214;6.962;2023-02-19T08:09:25;41.37;;;14.37;;
42972;SDS011;28610;51.214;6.962;2023-02-19T08:12:11;43.33;;;18.17;;
42972;SDS011;28610;51.214;6.962;2023-02-19T08:15:14;32.33;;;13.37;;
42972;SDS011;28610;51.214;6.962;2023-02-19T08:18:00;34.93;;;12.57;;
42972;SDS011;28610;51.214;6.962;2023-02-19T08:20:46;35.57;;;13.57;;
42972;SDS011;28610;51.214;6.962;2023-02-19T08:23:32;36.37;;;12.87;;
42972;SDS011;28610;51.214;6.962;2023-02-19T08:26:19;32.60;;;12.23;;
42972;SDS011;28610;51.214;6.962;2023-02-19T08:29:04;37.03;;;12.70;;
42972;SDS011;28610;51.214;6.962;2023-02-19T08:31:50;39.23;;;14.13;;
42972;SDS011;28610;51.214;6.962;2023-02-19T08:34:36;36.57;;;13.70;;
42972;SDS011;28610;51.214;6.962;2023-02-19T08:37:22;39.83;;;14.53;;
42972;SDS011;28610;51.214;6.962;2023-02-19T08:40:08;33.50;;;13.43;;
42972;SDS011;28610;51.214;6.962;2023-02-19T08:42:57;43.63;;;15.53;;
42972;SDS011;28610;51.214;6.962;2023-02-19T08:45:46;32.67;;;14.10;;
42972;SDS011;28610;51.214;6.962;2023-02-19T08:48:32;35.23;;;14.43;;
42972;SDS011;28610;51.214;6.962;2023-02-19T08:51:18;35.07;;;13.70;;
42972;SDS011;28610;51.214;6.962;2023-02-19T08:54:04;35.63;;;14.70;;
42972;SDS011;28610;51.214;6.962;2023-02-19T08:56:49;37.77;;;14.20;;
42972;SDS011;28610;51.214;6.962;2023-02-19T08:59:36;44.17;;;16.47;;
42972;SDS011;28610;51.214;6.962;2023-02-19T09:02:22;32.00;;;13.90;;
42972;SDS011;28610;51.214;6.962;2023-02-19T09:05:08;35.20;;;13.77;;
42972;SDS011;28610;51.214;6.962;2023-02-19T09:07:54;41.47;;;14.83;;
42972;SDS011;28610;51.214;6.962;2023-02-19T09:10:41;45.30;;;15.43;;
42972;SDS011;28610;51.214;6.962;2023-02-19T09:13:26;43.17;;;13.83;;
42972;SDS011;28610;51.214;6.962;2023-02-19T09:16:13;32.93;;;13.40;;
42972;SDS011;28610;51.214;6.962;2023-02-19T09:18:59;35.90;;;13.27;;
42972;SDS011;28610;51.214;6.962;2023-02-19T09:21:44;29.63;;;12.80;;
42972;SDS011;28610;51.214;6.962;2023-02-19T09:24:30;28.87;;;13.07;;
42972;SDS011;28610;51.214;6.962;2023-02-19T09:27:16;37.50;;;12.87;;
42972;SDS011;28610;51.214;6.962;2023-02-19T09:30:02;38.50;;;12.20;;
42972;SDS011;28610;51.214;6.962;2023-02-19T09:32:49;36.30;;;13.23;;
42972;SDS011;28610;51.214;6.962;2023-02-19T09:35:37;34.30;;;11.50;;
42972;SDS011;28610;51.214;6.962;2023-02-19T09:38:23;37.47;;;13.37;;
42972;SDS011;28610;51.214;6.962;2023-02-19T09:41:12;25.70;;;11.70;;
42972;SDS011;28610;51.214;6.962;2023-02-19T09:43:58;29.30;;;11.83;;
42972;SDS011;28610;51.214;6.962;2023-02-19T09:46:45;29.83;;;12.67;;
42972;SDS011;28610;51.214;6.962;2023-02-19T09:49:34;29.97;;;11.80;;
42972;SDS011;28610;51.214;6.962;2023-02-19T09:52:26;28.63;;;12.17;;
42972;SDS011;28610;51.214;6.962;2023-02-19T09:55:14;26.10;;;10.97;;
42972;SDS011;28610;51.214;6.962;2023-02-19T09:58:01;30.60;;;11.00;;
42972;SDS011;28610;51.214;6.962;2023-02-19T10:00:48;29.63;;;11.30;;
42972;SDS011;28610;51.214;6.962;2023-02-19T10:03:36;30.40;;;11.57;;
42972;SDS011;28610;51.214;6.962;2023-02-19T10:06:26;30.77;;;12.27;;
42972;SDS011;28610;51.214;6.962;2023-02-19T10:09:16;28.77;;;10.83;;
42972;SDS011;28610;51.214;6.962;2023-02-19T10:12:03;29.83;;;10.80;;
42972;SDS011;28610;51.214;6.962;2023-02-19T10:14:57;25.47;;;10.20;;
42972;SDS011;28610;51.214;6.962;2023-02-19T10:17:44;23.73;;;9.63;;
42972;SDS011;28610;51.214;6.962;2023-02-19T10:20:29;22.97;;;9.97;;
42972;SDS011;28610;51.214;6.962;2023-02-19T10:23:17;24.63;;;10.63;;
42972;SDS011;28610;51.214;6.962;2023-02-19T10:26:03;24.10;;;10.43;;
42972;SDS011;28610;51.214;6.962;2023-02-19T10:28:48;26.97;;;10.03;;
42972;SDS011;28610;51.214;6.962;2023-02-19T10:31:34;25.70;;;10.53;;
42972;SDS011;28610;51.214;6.962;2023-02-19T10:34:20;21.63;;;10.30;;
42972;SDS011;28610;51.214;6.962;2023-02-19T10:37:08;27.57;;;10.33;;
42972;SDS011;28610;51.214;6.962;2023-02-19T10:39:56;24.23;;;10.23;;
42972;SDS011;28610;51.214;6.962;2023-02-19T10:42:43;17.80;;;9.60;;
42972;SDS011;28610;51.214;6.962;2023-02-19T10:45:32;20.40;;;8.90;;
42972;SDS011;28610;51.214;6.962;2023-02-19T10:48:20;19.07;;;8.67;;
42972;SDS011;28610;51.214;6.962;2023-02-19T10:51:08;21.53;;;8.87;;
42972;SDS011;28610;51.214;6.962;2023-02-19T10:54:02;13.87;;;7.90;;
42972;SDS011;28610;51.214;6.962;2023-02-19T10:56:49;18.33;;;8.83;;
42972;SDS011;28610;51.214;6.962;2023-02-19T10:59:35;17.17;;;8.33;;
42972;SDS011;28610;51.214;6.962;2023-02-19T11:02:20;17.57;;;8.37;;
42972;SDS011;28610;51.214;6.962;2023-02-19T11:05:14;17.10;;;7.53;;
42972;SDS011;28610;51.214;6.962;2023-02-19T11:08:00;16.50;;;7.50;;
42972;SDS011;28610;51.214;6.962;2023-02-19T11:10:46;20.10;;;8.60;;
42972;SDS011;28610;51.214;6.962;2023-02-19T11:13:33;16.80;;;7.70;;
42972;SDS011;28610;51.214;6.962;2023-02-19T11:16:20;17.63;;;8.57;;
42972;SDS011;28610;51.214;6.962;2023-02-19T11:19:15;17.63;;;7.83;;
42972;SDS011;28610;51.214;6.962;2023-02-19T11:25:17;16.23;;;8.67;;
42972;SDS011;28610;51.214;6.962;2023-02-19T11:28:04;13.50;;;8.20;;
42972;SDS011;28610;51.214;6.962;2023-02-19T11:30:52;14.77;;;8.83;;
42972;SDS011;28610;51.214;6.962;2023-02-19T11:33:41;15.63;;;8.20;;
42972;SDS011;28610;51.214;6.962;2023-02-19T11:36:28;18.77;;;9.00;;
42972;SDS011;28610;51.214;6.962;2023-02-19T11:39:18;18.37;;;9.00;;
42972;SDS011;28610;51.214;6.962;2023-02-19T11:42:08;19.07;;;9.27;;
42972;SDS011;28610;51.214;6.962;2023-02-19T11:44:59;14.30;;;7.90;;
42972;SDS011;28610;51.214;6.962;2023-02-19T11:51:09;9.97;;;5.83;;
42972;SDS011;28610;51.214;6.962;2023-02-19T11:54:02;11.20;;;6.27;;
42972;SDS011;28610;51.214;6.962;2023-02-19T11:56:52;12.47;;;7.23;;
42972;SDS011;28610;51.214;6.962;2023-02-19T11:59:43;11.30;;;6.93;;
42972;SDS011;28610;51.214;6.962;2023-02-19T12:02:44;13.90;;;6.63;;
42972;SDS011;28610;51.214;6.962;2023-02-19T12:05:33;10.10;;;6.93;;
42972;SDS011;28610;51.214;6.962;2023-02-19T12:08:24;13.83;;;7.23;;
42972;SDS011;28610;51.214;6.962;2023-02-19T12:11:23;12.63;;;7.10;;
42972;SDS011;28610;51.214;6.962;2023-02-19T12:14:29;42.13;;;25.03;;
42972;SDS011;28610;51.214;6.962;2023-02-19T12:17:26;11.03;;;6.67;;
42972;SDS011;28610;51.214;6.962;2023-02-19T12:20:17;10.30;;;6.57;;
42972;SDS011;28610;51.214;6.962;2023-02-19T12:23:23;11.53;;;7.20;;
42972;SDS011;28610;51.214;6.962;2023-02-19T12:26:14;12.53;;;7.37;;
42972;SDS011;28610;51.214;6.962;2023-02-19T12:29:07;12.13;;;7.73;;
42972;SDS011;28610;51.214;6.962;2023-02-19T12:32:00;13.57;;;8.37;;
42972;SDS011;28610;51.214;6.962;2023-02-19T12:38:01;14.90;;;9.03;;
42972;SDS011;28610;51.214;6.962;2023-02-19T12:40:53;19.80;;;9.20;;
42972;SDS011;28610;51.214;6.962;2023-02-19T12:43:45;17.50;;;8.83;;
42972;SDS011;28610;51.214;6.962;2023-02-19T12:46:35;14.37;;;8.50;;
42972;SDS011;28610;51.214;6.962;2023-02-19T12:49:24;14.07;;;9.30;;
42972;SDS011;28610;51.214;6.962;2023-02-19T12:52:12;17.13;;;8.23;;
42972;SDS011;28610;51.214;6.962;2023-02-19T12:55:04;13.83;;;8.27;;
42972;SDS011;28610;51.214;6.962;2023-02-19T12:57:53;15.57;;;8.30;;
42972;SDS011;28610;51.214;6.962;2023-02-19T13:00:41;15.87;;;8.40;;
42972;SDS011;28610;51.214;6.962;2023-02-19T13:03:29;17.60;;;8.87;;
42972;SDS011;28610;51.214;6.962;2023-02-19T13:06:20;13.50;;;8.03;;
42972;SDS011;28610;51.214;6.962;2023-02-19T13:09:09;13.27;;;7.83;;
42972;SDS011;28610;51.214;6.962;2023-02-19T13:11:58;13.80;;;7.70;;
42972;SDS011;28610;51.214;6.962;2023-02-19T13:14:47;17.33;;;8.80;;
42972;SDS011;28610;51.214;6.962;2023-02-19T13:17:37;17.03;;;8.73;;
42972;SDS011;28610;51.214;6.962;2023-02-19T13:20:24;13.53;;;8.17;;
42972;SDS011;28610;51.214;6.962;2023-02-19T13:23:10;13.60;;;8.07;;
42972;SDS011;28610;51.214;6.962;2023-02-19T13:26:22;18.27;;;9.30;;
42972;SDS011;28610;51.214;6.962;2023-02-19T13:29:15;20.03;;;9.20;;
42972;SDS011;28610;51.214;6.962;2023-02-19T13:32:07;17.63;;;9.37;;
42972;SDS011;28610;51.214;6.962;2023-02-19T13:34:59;18.00;;;9.50;;
42972;SDS011;28610;51.214;6.962;2023-02-19T13:37:48;20.70;;;11.40;;
42972;SDS011;28610;51.214;6.962;2023-02-19T13:40:34;17.73;;;10.47;;
42972;SDS011;28610;51.214;6.962;2023-02-19T13:43:22;19.33;;;10.20;;
42972;SDS011;28610;51.214;6.962;2023-02-19T13:46:11;20.23;;;10.33;;
42972;SDS011;28610;51.214;6.962;2023-02-19T13:52:30;24.13;;;11.43;;
42972;SDS011;28610;51.214;6.962;2023-02-19T14:01:20;21.50;;;11.13;;
42972;SDS011;28610;51.214;6.962;2023-02-19T14:04:39;24.37;;;11.93;;
42972;SDS011;28610;51.214;6.962;2023-02-19T14:16:51;19.50;;;11.63;;
42972;SDS011;28610;51.214;6.962;2023-02-19T14:19:49;22.77;;;12.00;;
42972;SDS011;28610;51.214;6.962;2023-02-19T14:22:49;25.40;;;12.47;;
42972;SDS011;28610;51.214;6.962;2023-02-19T14:25:45;21.00;;;11.40;;
42972;SDS011;28610;51.214;6.962;2023-02-19T14:28:36;21.67;;;11.40;;
42972;SDS011;28610;51.214;6.962;2023-02-19T14:31:28;22.93;;;11.53;;
42972;SDS011;28610;51.214;6.962;2023-02-19T14:34:16;19.17;;;11.50;;
42972;SDS011;28610;51.214;6.962;2023-02-19T14:37:04;22.73;;;12.20;;
42972;SDS011;28610;51.214;6.962;2023-02-19T14:39:52;19.20;;;12.30;;
42972;SDS011;28610;51.214;6.962;2023-02-19T14:42:40;21.93;;;11.80;;
42972;SDS011;28610;51.214;6.962;2023-02-19T14:45:26;25.07;;;12.97;;
42972;SDS011;28610;51.214;6.962;2023-02-19T14:48:14;26.47;;;13.07;;
42972;SDS011;28610;51.214;6.962;2023-02-19T14:51:03;23.93;;;12.23;;
42972;SDS011;28610;51.214;6.962;2023-02-19T14:53:51;22.07;;;13.23;;
42972;SDS011;28610;51.214;6.962;2023-02-19T14:56:37;27.47;;;13.47;;
42972;SDS011;28610;51.214;6.962;2023-02-19T14:59:24;19.80;;;12.10;;
42972;SDS011;28610;51.214;6.962;2023-02-19T15:02:15;20.20;;;11.03;;
42972;SDS011;28610;51.214;6.962;2023-02-19T15:05:05;20.17;;;9.93;;
42972;SDS011;28610;51.214;6.962;2023-02-19T15:08:01;15.90;;;9.93;;
42972;SDS011;28610;51.214;6.962;2023-02-19T15:10:48;18.50;;;10.13;;
42972;SDS011;28610;51.214;6.962;2023-02-19T15:13:34;19.90;;;10.70;;
42972;SDS011;28610;51.214;6.962;2023-02-19T15:16:20;20.83;;;10.00;;
42972;SDS011;28610;51.214;6.962;2023-02-19T15:19:08;17.50;;;9.70;;
42972;SDS011;28610;51.214;6.962;2023-02-19T15:21:54;19.87;;;9.73;;
42972;SDS011;28610;51.214;6.962;2023-02-19T15:24:43;17.87;;;8.40;;
42972;SDS011;28610;51.214;6.962;2023-02-19T15:27:30;16.03;;;8.70;;
42972;SDS011;28610;51.214;6.962;2023-02-19T15:30:18;17.00;;;9.13;;
42972;SDS011;28610;51.214;6.962;2023-02-19T15:33:12;16.77;;;8.17;;
42972;SDS011;28610;51.214;6.962;2023-02-19T15:36:00;17.47;;;8.40;;
42972;SDS011;28610;51.214;6.962;2023-02-19T15:38:50;19.60;;;8.47;;
42972;SDS011;28610;51.214;6.962;2023-02-19T15:41:38;19.17;;;8.53;;
42972;SDS011;28610;51.214;6.962;2023-02-19T15:44:30;23.57;;;10.60;;
42972;SDS011;28610;51.214;6.962;2023-02-19T15:47:19;19.47;;;9.87;;
42972;SDS011;28610;51.214;6.962;2023-02-19T15:50:06;23.63;;;10.23;;
42972;SDS011;28610;51.214;6.962;2023-02-19T15:52:55;24.90;;;11.90;;
42972;SDS011;28610;51.214;6.962;2023-02-19T15:55:43;18.23;;;11.03;;
42972;SDS011;28610;51.214;6.962;2023-02-19T15:58:33;23.37;;;10.73;;
42972;SDS011;28610;51.214;6.962;2023-02-19T16:01:23;21.73;;;10.67;;
42972;SDS011;28610;51.214;6.962;2023-02-19T16:04:10;19.77;;;10.90;;
42972;SDS011;28610;51.214;6.962;2023-02-19T16:06:57;27.67;;;11.97;;
42972;SDS011;28610;51.214;6.962;2023-02-19T16:09:43;24.57;;;12.33;;
42972;SDS011;28610;51.214;6.962;2023-02-19T16:12:28;25.93;;;13.50;;
42972;SDS011;28610;51.214;6.962;2023-02-19T16:15:18;24.80;;;12.33;;
42972;SDS011;28610;51.214;6.962;2023-02-19T16:18:04;27.97;;;13.60;;
42972;SDS011;28610;51.214;6.962;2023-02-19T16:20:49;29.43;;;13.93;;
42972;SDS011;28610;51.214;6.962;2023-02-19T16:23:39;28.80;;;12.87;;
42972;SDS011;28610;51.214;6.962;2023-02-19T16:26:25;27.33;;;13.23;;
42972;SDS011;28610;51.214;6.962;2023-02-19T16:29:16;28.03;;;13.37;;
42972;SDS011;28610;51.214;6.962;2023-02-19T16:32:04;25.43;;;13.13;;
42972;SDS011;28610;51.214;6.962;2023-02-19T16:34:50;28.53;;;12.90;;
42972;SDS011;28610;51.214;6.962;2023-02-19T16:37:36;29.90;;;13.00;;
42972;SDS011;28610;51.214;6.962;2023-02-19T16:43:29;25.10;;;11.87;;
42972;SDS011;28610;51.214;6.962;2023-02-19T16:46:15;22.70;;;10.90;;
42972;SDS011;28610;51.214;6.962;2023-02-19T16:49:02;23.03;;;10.63;;
42972;SDS011;28610;51.214;6.962;2023-02-19T16:51:47;18.73;;;9.00;;
42972;SDS011;28610;51.214;6.962;2023-02-19T16:54:33;15.53;;;7.77;;
42972;SDS011;28610;51.214;6.962;2023-02-19T16:57:19;25.10;;;8.90;;
42972;SDS011;28610;51.214;6.962;2023-02-19T17:00:06;14.17;;;7.97;;
42972;SDS011;28610;51.214;6.962;2023-02-19T17:02:53;13.07;;;7.93;;
42972;SDS011;28610;51.214;6.962;2023-02-19T17:05:40;15.83;;;7.23;;